Time;durP1;ratioP1;P1;durP2;ratioP2;P2;SDS_P1;SDS_P2;PMS_P1;PMS_P2;Temp;Humidity;BMP_temperature;BMP_pressure;BME280_temperature;BME280_humidity;BME280_pressure;Samples;Min_cycle;Max_cycle;Signal;HPM_P1;HPM_P2
2023/06/13 00:00:27;;;;;;;3.60;2.35;;;;;;;13.61;100.00;95538.03;1043752;28;20033;-73
2023/06/13 00:00:57;;;;;;;2.95;2.33;;;;;;;13.60;100.00;95536.47;1051232;28;20027;-73
2023/06/13 00:01:30;;;;;;;5.13;2.40;;;;;;;13.58;100.00;95533.31;1050253;28;20043;-73
2023/06/13 00:02:01;;;;;;;5.35;2.33;;;;;;;13.59;100.00;95534.91;1050058;28;20031;-73
2023/06/13 00:02:33;;;;;;;3.95;2.40;;;;;;;13.57;100.00;95531.75;1047143;28;20032;-73
2023/06/13 00:03:03;;;;;;;8.25;3.47;;;;;;;13.56;100.00;95536.25;1050897;28;20020;-74
2023/06/13 00:03:34;;;;;;;4.40;2.22;;;;;;;13.57;100.00;95539.69;1042422;28;20052;-74
2023/06/13 00:04:04;;;;;;;5.13;2.33;;;;;;;13.57;100.00;95537.03;1035917;28;20025;-73
2023/06/13 00:04:35;;;;;;;3.40;2.78;;;;;;;13.58;100.00;95541.22;1034668;28;20034;-74
2023/06/13 00:05:06;;;;;;;3.90;3.00;;;;;;;13.56;100.00;95532.84;1039027;28;20043;-74
2023/06/13 00:05:37;;;;;;;4.13;2.55;;;;;;;13.54;100.00;95532.34;1046125;28;20028;-73
2023/06/13 00:06:09;;;;;;;3.08;2.30;;;;;;;13.54;100.00;95532.34;1046793;28;20025;-74
2023/06/13 00:06:40;;;;;;;6.53;3.13;;;;;;;13.46;100.00;95530.34;1038782;28;20117;-73
2023/06/13 00:07:10;;;;;;;4.45;2.70;;;;;;;13.52;100.00;95537.13;1034295;28;20029;-74
2023/06/13 00:07:41;;;;;;;3.08;2.33;;;;;;;13.49;100.00;95530.56;1030933;28;20030;-75
2023/06/13 00:08:17;;;;;;;5.97;2.92;;;;;;;13.48;100.00;95534.28;1034159;28;20026;-74
2023/06/13 00:08:48;;;;;;;3.17;2.38;;;;;;;13.46;100.00;95531.13;1036626;28;20022;-72
2023/06/13 00:09:19;;;;;;;4.40;2.35;;;;;;;13.46;100.00;95530.34;1042629;28;20562;-73
2023/06/13 00:09:49;;;;;;;3.85;3.00;;;;;;;13.43;100.00;95537.75;1038016;28;20041;-73
2023/06/13 00:10:20;;;;;;;3.65;2.55;;;;;;;13.43;100.00;95536.97;1038441;28;20017;-73
2023/06/13 00:10:50;;;;;;;4.55;2.63;;;;;;;13.43;100.00;95532.47;1036513;28;20029;-73
2023/06/13 00:11:21;;;;;;;7.47;2.65;;;;;;;13.43;100.00;95537.75;1038148;28;20059;-73
2023/06/13 00:11:52;;;;;;;4.00;2.63;;;;;;;13.44;100.00;95528.75;1042797;28;20403;-74
2023/06/13 00:12:24;;;;;;;2.67;2.40;;;;;;;13.40;100.00;95527.78;1042314;28;20021;-73
2023/06/13 00:12:55;;;;;;;3.97;2.67;;;;;;;13.43;100.00;95529.84;1035071;28;20022;-75
2023/06/13 00:13:26;;;;;;;3.22;2.33;;;;;;;13.44;100.00;95533.25;1034577;28;20026;-73
2023/06/13 00:13:56;;;;;;;3.47;2.70;;;;;;;13.41;100.00;95531.19;1030551;28;20015;-73
2023/06/13 00:14:26;;;;;;;3.38;2.47;;;;;;;13.35;100.00;95521.81;1031121;28;20042;-73
2023/06/13 00:15:01;;;;;;;2.50;2.20;;;;;;;13.37;100.00;95530.97;1038864;28;20440;-74
2023/06/13 00:15:33;;;;;;;4.38;2.58;;;;;;;13.36;100.00;95526.78;1035728;28;20062;-73
2023/06/13 00:16:04;;;;;;;4.28;1.85;;;;;;;13.35;100.00;95525.22;1042635;28;20517;-73
2023/06/13 00:16:36;;;;;;;4.05;2.38;;;;;;;13.34;100.00;95523.63;1046205;28;20020;-74
2023/06/13 00:17:07;;;;;;;3.28;2.20;;;;;;;13.30;100.00;95521.88;1039389;28;20021;-73
2023/06/13 00:17:38;;;;;;;4.60;2.97;;;;;;;13.35;100.00;95525.22;1038538;28;20018;-74
2023/06/13 00:18:08;;;;;;;5.55;2.85;;;;;;;13.34;100.00;95528.91;1030859;28;20026;-73
2023/06/13 00:18:39;;;;;;;3.17;2.40;;;;;;;13.32;100.00;95523.16;1039645;28;20526;-73
2023/06/13 00:19:13;;;;;;;3.00;2.42;;;;;;;13.29;100.00;95523.72;1046908;28;20017;-74
2023/06/13 00:19:45;;;;;;;3.55;2.45;;;;;;;13.27;100.00;95522.44;1038970;28;20498;-74
2023/06/13 00:20:16;;;;;;;3.78;2.67;;;;;;;13.24;100.00;95523.78;1038135;28;20037;-73
2023/06/13 00:20:47;;;;;;;3.63;2.45;;;;;;;13.28;100.00;95529.25;1038710;28;20032;-74
2023/06/13 00:21:18;;;;;;;7.05;2.70;;;;;;;13.27;100.00;95523.22;1038322;28;20017;-73
2023/06/13 00:21:48;;;;;;;3.83;2.47;;;;;;;13.29;100.00;95520.31;1038555;28;20310;-73
2023/06/13 00:22:21;;;;;;;4.95;2.30;;;;;;;13.28;100.00;95524.81;1038658;28;20080;-73
2023/06/13 00:22:52;;;;;;;6.07;3.17;;;;;;;13.24;100.00;95517.69;1031193;28;20045;-74
2023/06/13 00:23:22;;;;;;;2.38;2.05;;;;;;;13.27;100.00;95520.59;1034911;28;20538;-73
2023/06/13 00:23:53;;;;;;;7.18;2.63;;;;;;;13.25;100.00;95514.81;1034414;28;20056;-73
2023/06/13 00:24:23;;;;;;;4.00;2.03;;;;;;;13.22;100.00;95523.28;1034541;28;20034;-73
2023/06/13 00:24:53;;;;;;;2.90;2.40;;;;;;;13.17;100.00;95512.78;1038496;28;20021;-73
2023/06/13 00:25:24;;;;;;;2.92;2.47;;;;;;;13.21;100.00;95519.03;1038708;28;20547;-74
2023/06/13 00:25:55;;;;;;;3.03;2.22;;;;;;;13.17;100.00;95518.06;1038709;28;20525;-73
2023/06/13 00:26:25;;;;;;;5.22;2.80;;;;;;;13.21;100.00;95519.03;1039437;28;20018;-73
2023/06/13 00:26:56;;;;;;;5.05;2.97;;;;;;;13.20;100.00;95517.50;1054965;28;20624;-73
2023/06/13 00:27:26;;;;;;;3.58;2.50;;;;;;;13.19;100.00;95516.72;1046977;28;20032;-74
2023/06/13 00:27:57;;;;;;;3.65;2.45;;;;;;;13.19;100.00;95515.94;1042825;28;20017;-73
2023/06/13 00:28:27;;;;;;;4.70;2.55;;;;;;;13.07;100.00;95497.13;1046767;28;20028;-74
2023/06/13 00:28:58;;;;;;;4.85;2.40;;;;;;;13.13;100.00;95509.16;1034500;28;20076;-74
2023/06/13 00:29:28;;;;;;;3.70;2.30;;;;;;;13.16;100.00;95521.75;1026346;28;20019;-73
2023/06/13 00:29:59;;;;;;;5.30;2.28;;;;;;;13.14;100.00;95519.41;1027986;28;20015;-73
2023/06/13 00:30:30;;;;;;;3.83;2.80;;;;;;;13.12;100.00;95518.91;1038502;28;20021;-74
2023/06/13 00:31:00;;;;;;;3.72;2.35;;;;;;;13.12;100.00;95520.78;1042332;28;20024;-73
2023/06/13 00:31:32;;;;;;;5.60;2.17;;;;;;;13.09;100.00;95516.06;1047275;28;20279;-74
2023/06/13 00:32:02;;;;;;;2.95;2.38;;;;;;;13.09;100.00;95516.06;1042508;28;20127;-73
2023/06/13 00:32:33;;;;;;;3.08;2.60;;;;;;;13.03;100.00;95512.69;1039047;28;20033;-73
2023/06/13 00:33:04;;;;;;;3.70;2.40;;;;;;;13.05;100.00;95515.84;1046768;28;20029;-73
2023/06/13 00:33:35;;;;;;;3.33;2.40;;;;;;;13.03;100.00;95511.94;1046702;28;20481;-73
2023/06/13 00:34:05;;;;;;;3.30;2.45;;;;;;;12.98;100.00;95510.94;1046950;28;20024;-73
2023/06/13 00:34:38;;;;;;;2.47;2.28;;;;;;;12.97;100.00;95508.56;1046802;28;20024;-74
2023/06/13 00:35:09;;;;;;;3.22;2.60;;;;;;;12.99;100.00;95509.06;1049594;28;20662;-74
2023/06/13 00:35:39;;;;;;;4.18;2.67;;;;;;;13.00;100.00;95509.84;1051279;28;20102;-73
2023/06/13 00:36:14;;;;;;;4.13;2.47;;;;;;;12.97;100.00;95508.56;1042317;28;20025;-73
2023/06/13 00:36:45;;;;;;;3.90;2.10;;;;;;;13.01;100.00;95514.84;1031877;28;20010;-73
2023/06/13 00:37:16;;;;;;;3.20;2.47;;;;;;;12.97;100.00;95500.66;1034521;28;20105;-73
2023/06/13 00:37:50;;;;;;;4.00;2.28;;;;;;;13.04;100.00;95510.84;1034377;28;20022;-74
2023/06/13 00:38:22;;;;;;;4.53;2.53;;;;;;;13.04;100.00;95508.22;1034385;28;20538;-74
2023/06/13 00:38:52;;;;;;;4.40;2.47;;;;;;;13.02;100.00;95505.09;1031301;28;20026;-73
2023/06/13 00:39:23;;;;;;;3.88;2.30;;;;;;;13.01;100.00;95504.31;1036948;28;20030;-74
2023/06/13 00:39:53;;;;;;;8.35;3.97;;;;;;;13.00;100.00;95505.38;1042627;28;20087;-74
2023/06/13 00:40:24;;;;;;;2.40;2.20;;;;;;;12.93;100.00;95495.19;1038595;28;20022;-73
2023/06/13 00:40:54;;;;;;;4.38;2.80;;;;;;;12.91;100.00;95494.69;1038798;28;20021;-73
2023/06/13 00:41:25;;;;;;;5.93;2.10;;;;;;;12.88;100.00;95494.47;1037893;28;20025;-73
2023/06/13 00:41:55;;;;;;;6.60;2.72;;;;;;;12.93;100.00;95508.34;1036448;28;20092;-74
2023/06/13 00:42:26;;;;;;;4.90;2.63;;;;;;;12.94;100.00;95501.22;1042618;28;20683;-72
2023/06/13 00:42:56;;;;;;;4.90;2.20;;;;;;;12.93;100.00;95497.81;1042637;28;20091;-73
2023/06/13 00:43:27;;;;;;;7.25;2.65;;;;;;;12.93;100.00;95500.44;1039320;28;20030;-73
2023/06/13 00:43:58;;;;;;;5.45;2.67;;;;;;;12.90;100.00;95497.59;1043087;28;20021;-73
2023/06/13 00:44:29;;;;;;;4.30;2.80;;;;;;;12.91;100.00;95499.97;1042498;28;20037;-73
2023/06/13 00:45:20;;;;;;;4.93;2.97;;;;;;;12.88;100.00;95505.00;1042827;28;20592;-74
2023/06/13 00:45:51;;;;;;;3.80;2.40;;;;;;;12.85;100.00;95505.56;1045709;28;20024;-73
2023/06/13 00:46:32;;;;;;;3.85;2.75;;;;;;;12.82;100.00;95485.84;1037363;28;20026;-72
2023/06/13 00:47:03;;;;;;;4.20;2.25;;;;;;;12.85;100.00;95503.72;1040078;28;20060;-73
2023/06/13 00:47:36;;;;;;;3.90;2.85;;;;;;;12.83;100.00;95497.16;1042877;28;20580;-74
2023/06/13 00:48:07;;;;;;;8.45;3.50;;;;;;;12.77;100.00;95493.78;1034276;28;20036;-73
2023/06/13 00:48:37;;;;;;;3.40;2.35;;;;;;;12.80;100.00;95495.88;1038212;28;20040;-74
2023/06/13 00:49:08;;;;;;;3.97;2.33;;;;;;;12.76;100.00;95492.25;1042765;28;20059;-74
2023/06/13 00:49:38;;;;;;;4.13;2.50;;;;;;;12.77;100.00;95493.03;1042803;28;20581;-73
2023/06/13 00:50:09;;;;;;;3.22;2.35;;;;;;;12.74;100.00;95486.47;1038573;28;20029;-73
2023/06/13 00:50:44;;;;;;;3.30;2.50;;;;;;;12.76;100.00;95488.81;1042428;28;20033;-73
2023/06/13 00:51:15;;;;;;;3.45;2.35;;;;;;;12.79;100.00;95496.94;1042964;28;20025;-74
2023/06/13 00:51:46;;;;;;;4.65;2.72;;;;;;;12.81;100.00;95494.81;1042744;28;20021;-73
2023/06/13 00:52:16;;;;;;;2.83;2.38;;;;;;;12.75;100.00;95485.41;1042621;28;20422;-74
2023/06/13 00:52:47;;;;;;;2.67;2.40;;;;;;;12.77;100.00;95487.75;1042340;28;20013;-74
2023/06/13 00:53:18;;;;;;;3.67;2.75;;;;;;;12.82;100.00;95498.25;1042878;28;20509;-74
2023/06/13 00:53:48;;;;;;;3.70;2.50;;;;;;;12.81;100.00;95494.00;1042339;28;20025;-74
2023/06/13 00:54:18;;;;;;;3.92;2.90;;;;;;;12.73;100.00;95483.03;1042773;28;20071;-74
2023/06/13 00:54:49;;;;;;;3.08;2.38;;;;;;;12.77;100.00;95493.78;1030147;28;20438;-73
2023/06/13 00:55:22;;;;;;;6.80;2.88;;;;;;;12.79;100.00;95490.91;1030761;28;20030;-74
2023/06/13 00:55:52;;;;;;;7.07;2.90;;;;;;;12.78;100.00;95487.47;1042557;28;20021;-74
2023/06/13 00:56:28;;;;;;;3.97;2.45;;;;;;;12.77;100.00;95485.91;1038326;28;20025;-73
2023/06/13 00:56:59;;;;;;;4.25;2.75;;;;;;;12.81;100.00;95484.28;1030181;28;20049;-73
2023/06/13 00:57:31;;;;;;;3.90;1.98;;;;;;;12.82;100.00;95488.47;1042775;28;20040;-73
2023/06/13 00:58:06;;;;;;;4.65;2.50;;;;;;;12.79;100.00;95491.69;1046746;28;20032;-73
2023/06/13 00:58:37;;;;;;;4.10;2.58;;;;;;;12.79;100.00;95499.56;1038629;28;20283;-73
2023/06/13 00:59:08;;;;;;;4.72;2.58;;;;;;;12.77;100.00;95493.78;1038110;28;20033;-73
2023/06/13 00:59:38;;;;;;;6.50;2.75;;;;;;;12.74;100.00;95494.34;1042657;28;20025;-73
2023/06/13 01:00:09;;;;;;;4.55;2.50;;;;;;;12.71;100.00;95493.09;1038572;28;20033;-73
2023/06/13 01:00:40;;;;;;;3.95;2.40;;;;;;;12.70;100.00;95494.13;1028655;28;20050;-74
2023/06/13 01:01:11;;;;;;;4.38;2.88;;;;;;;12.64;100.00;95486.59;1029678;28;20026;-73
2023/06/13 01:01:42;;;;;;;4.57;2.53;;;;;;;12.67;100.00;95489.44;1034841;28;20060;-75
2023/06/13 01:02:15;;;;;;;5.28;2.85;;;;;;;12.64;100.00;95490.03;1039664;28;20068;-73
2023/06/13 01:02:45;;;;;;;6.80;2.70;;;;;;;12.62;100.00;95486.09;1038482;28;20506;-73
2023/06/13 01:03:15;;;;;;;4.85;2.80;;;;;;;12.64;100.00;95494.47;1030159;28;20093;-74
2023/06/13 01:03:46;;;;;;;4.22;2.42;;;;;;;12.61;100.00;95495.03;1030419;28;20050;-73
2023/06/13 01:04:19;;;;;;;5.85;2.83;;;;;;;12.62;100.00;95488.72;1044367;28;20028;-74
2023/06/13 01:04:51;;;;;;;4.72;2.92;;;;;;;12.60;100.00;95489.00;1042863;28;20032;-73
2023/06/13 01:05:28;;;;;;;8.15;2.85;;;;;;;12.60;100.00;95498.75;1046644;28;20486;-74
2023/06/13 01:05:58;;;;;;;5.60;2.40;;;;;;;12.59;100.00;95494.56;1039979;28;20377;-73
2023/06/13 01:06:29;;;;;;;3.20;2.60;;;;;;;12.50;100.00;95487.25;1044007;28;20031;-73
2023/06/13 01:07:00;;;;;;;6.75;2.53;;;;;;;12.56;100.00;95488.00;1042699;28;20108;-73
2023/06/13 01:07:34;;;;;;;3.45;2.58;;;;;;;12.53;100.00;95482.50;1045058;28;20068;-73
2023/06/13 01:08:10;;;;;;;2.75;2.10;;;;;;;12.51;100.00;95480.16;1038421;28;20087;-73
2023/06/13 01:08:40;;;;;;;5.47;2.33;;;;;;;12.56;100.00;95493.25;1034404;28;20904;-73
2023/06/13 01:09:11;;;;;;;3.55;2.47;;;;;;;12.55;100.00;95489.06;1032724;28;20081;-73
2023/06/13 01:09:41;;;;;;;3.45;2.50;;;;;;;12.50;100.00;95478.59;1035679;28;20042;-74
2023/06/13 01:10:12;;;;;;;5.25;2.35;;;;;;;12.55;100.00;95488.28;1038019;28;20403;-73
2023/06/13 01:10:42;;;;;;;3.53;2.85;;;;;;;12.49;100.00;95480.44;1038335;28;20107;-73
2023/06/13 01:11:31;;;;;;;5.32;2.63;;;;;;;12.55;100.00;95485.66;1029498;28;20033;-72
2023/06/13 01:12:11;;;;;;;3.90;2.50;;;;;;;12.54;100.00;95481.44;1038378;28;20502;-74
2023/06/13 01:12:51;;;;;;;3.35;2.50;;;;;;;12.51;100.00;95480.16;1041752;28;20505;-74
2023/06/13 01:13:47;;;;;;;4.13;2.83;;;;;;;12.49;100.00;95483.06;1042594;28;20499;-72
2023/06/13 01:14:40;;;;;;;11.77;3.25;;;;;;;12.49;100.00;95488.34;1030924;28;20399;-73
2023/06/13 01:15:13;;;;;;;4.80;2.50;;;;;;;12.49;100.00;95487.56;1042111;28;20025;-74
2023/06/13 01:16:24;;;;;;;3.40;2.40;;;;;;;12.48;100.00;95488.63;1041480;28;20263;-74
2023/06/13 01:16:59;;;;;;;3.97;2.53;;;;;;;12.47;100.00;95487.84;1029295;28;20046;-73
2023/06/13 01:17:33;;;;;;;4.32;2.50;;;;;;;12.42;100.00;95477.38;1037717;28;20270;-73
2023/06/13 01:18:05;;;;;;;5.20;2.50;;;;;;;12.43;100.00;95481.56;1041902;28;20760;-74
2023/06/13 01:18:37;;;;;;;4.65;2.55;;;;;;;12.41;100.00;95485.56;1042876;28;20275;-73
2023/06/13 01:19:11;;;;;;;8.68;3.45;;;;;;;12.36;100.00;95477.69;1042684;28;21003;-74
2023/06/13 01:19:43;;;;;;;4.32;2.50;;;;;;;12.37;100.00;95477.41;1042435;28;20052;-73
2023/06/13 01:20:14;;;;;;;4.90;2.65;;;;;;;12.39;100.00;95488.44;1034346;28;20247;-73
2023/06/13 01:20:44;;;;;;;6.20;2.60;;;;;;;12.34;100.00;95471.91;1042516;28;20037;-73
2023/06/13 01:21:15;;;;;;;3.60;2.50;;;;;;;12.35;100.00;95476.91;1037641;28;20099;-73
2023/06/13 01:21:45;;;;;;;3.90;2.90;;;;;;;12.38;100.00;95481.63;1038234;28;20497;-74
2023/06/13 01:22:17;;;;;;;3.47;2.88;;;;;;;12.41;100.00;95483.69;1042688;28;20063;-73
2023/06/13 01:23:16;;;;;;;4.57;2.58;;;;;;;12.41;100.00;95485.56;1042418;28;20033;-73
2023/06/13 01:24:10;;;;;;;4.00;2.33;;;;;;;12.41;100.00;95481.06;1017966;29;20036;-74
2023/06/13 01:24:59;;;;;;;3.65;2.42;;;;;;;12.38;100.00;95481.63;1030820;28;20271;-73
2023/06/13 01:25:52;;;;;;;4.60;2.55;;;;;;;12.39;100.00;95483.19;1044167;28;20025;-73
2023/06/13 01:26:47;;;;;;;3.55;2.50;;;;;;;12.37;100.00;95482.66;1045563;28;20053;-74
2023/06/13 01:27:18;;;;;;;5.68;2.60;;;;;;;12.34;100.00;95485.06;1050829;28;20261;-73
2023/06/13 01:27:49;;;;;;;7.50;2.58;;;;;;;12.30;100.00;95468.28;1042457;28;20251;-73
2023/06/13 01:28:20;;;;;;;6.45;2.58;;;;;;;12.30;100.00;95474.31;1036116;28;20357;-73
2023/06/13 01:28:51;;;;;;;3.55;2.40;;;;;;;12.32;100.00;95482.75;1030389;28;20049;-73
2023/06/13 01:29:22;;;;;;;4.93;2.30;;;;;;;12.32;100.00;95485.38;1038325;28;20929;-74
2023/06/13 01:29:53;;;;;;;6.65;2.53;;;;;;;12.33;100.00;95479.03;1038224;28;20029;-73
2023/06/13 01:30:23;;;;;;;2.60;2.40;;;;;;;12.32;100.00;95476.69;1030154;28;20053;-74
2023/06/13 01:30:54;;;;;;;5.88;2.35;;;;;;;12.32;100.00;95479.31;1034208;28;20026;-74
2023/06/13 01:31:24;;;;;;;5.20;2.70;;;;;;;12.31;100.00;95480.38;1037522;28;20125;-73
2023/06/13 01:31:55;;;;;;;3.25;2.50;;;;;;;12.18;100.00;95455.53;1034245;28;20560;-74
2023/06/13 01:32:26;;;;;;;4.50;2.47;;;;;;;12.31;100.00;95475.91;1030122;28;20591;-74
2023/06/13 01:32:57;;;;;;;6.03;2.70;;;;;;;12.26;100.00;95468.06;1030345;28;20447;-74
2023/06/13 01:33:27;;;;;;;4.28;2.30;;;;;;;12.25;100.00;95469.13;1032696;28;20424;-74
2023/06/13 01:33:58;;;;;;;4.70;2.45;;;;;;;12.26;100.00;95468.84;1030286;28;20392;-74
2023/06/13 01:34:29;;;;;;;5.13;2.60;;;;;;;12.28;100.00;95465.94;1038171;28;20032;-73
2023/06/13 01:34:59;;;;;;;4.18;2.60;;;;;;;12.27;100.00;95469.63;1038284;28;20368;-74
2023/06/13 01:35:30;;;;;;;8.02;3.08;;;;;;;12.31;100.00;95469.84;1034300;28;20029;-73
2023/06/13 01:36:01;;;;;;;4.15;2.83;;;;;;;12.31;100.00;95475.91;1034097;28;20080;-73
2023/06/13 01:36:31;;;;;;;3.53;2.53;;;;;;;12.31;100.00;95462.75;1034207;28;20022;-73
2023/06/13 01:37:02;;;;;;;5.45;2.63;;;;;;;12.29;100.00;95472.78;1042243;28;20013;-73
2023/06/13 01:37:33;;;;;;;4.05;2.75;;;;;;;12.29;100.00;95467.50;1038276;28;20067;-73
2023/06/13 01:38:04;;;;;;;5.40;2.90;;;;;;;12.29;100.00;95472.78;1034049;28;20060;-73
2023/06/13 01:38:34;;;;;;;7.55;4.15;;;;;;;12.29;100.00;95478.03;1034043;28;20083;-73
2023/06/13 01:39:05;;;;;;;3.28;2.25;;;;;;;12.28;100.00;95476.47;1042237;28;20537;-73
2023/06/13 01:39:35;;;;;;;4.90;2.67;;;;;;;12.27;100.00;95469.63;1046586;28;20437;-73
2023/06/13 01:40:07;;;;;;;4.88;2.85;;;;;;;12.23;100.00;95464.13;1043143;28;20043;-73
2023/06/13 01:40:38;;;;;;;3.33;2.60;;;;;;;12.25;100.00;95466.50;1042071;28;20067;-74
2023/06/13 01:41:08;;;;;;;4.03;2.38;;;;;;;12.24;100.00;95472.84;1025784;28;20277;-74
2023/06/13 01:41:39;;;;;;;3.13;2.60;;;;;;;12.22;100.00;95481.00;1034612;28;20555;-74
2023/06/13 01:42:10;;;;;;;6.90;2.47;;;;;;;12.17;100.00;95467.09;1038412;28;20052;-73
2023/06/13 01:42:40;;;;;;;5.25;2.60;;;;;;;12.21;100.00;95473.38;1038447;28;20117;-73
2023/06/13 01:43:10;;;;;;;6.13;2.60;;;;;;;12.20;100.00;95469.94;1034247;28;20096;-74
2023/06/13 01:43:41;;;;;;;4.55;2.45;;;;;;;12.21;100.00;95476.03;1028769;28;20031;-73
2023/06/13 01:44:18;;;;;;;6.22;2.88;;;;;;;12.19;100.00;95471.03;1038515;28;20036;-73
2023/06/13 01:44:49;;;;;;;6.20;2.45;;;;;;;12.19;100.00;95467.63;1038228;28;20560;-73
2023/06/13 01:45:19;;;;;;;6.57;3.03;;;;;;;12.16;100.00;95462.91;1034166;28;20279;-74
2023/06/13 01:45:52;;;;;;;4.32;2.80;;;;;;;12.16;100.00;95463.69;1034146;28;20022;-73
2023/06/13 01:46:26;;;;;;;5.35;2.20;;;;;;;12.19;100.00;95470.25;1034287;28;20024;-73
2023/06/13 01:47:10;;;;;;;4.60;2.80;;;;;;;12.17;100.00;95473.16;1033956;28;20405;-74
2023/06/13 01:47:57;;;;;;;4.13;2.55;;;;;;;12.17;100.00;95465.28;1037001;28;20630;-73
2023/06/13 01:48:46;;;;;;;3.03;2.20;;;;;;;12.14;100.00;95467.66;1034286;28;20269;-74
2023/06/13 01:49:25;;;;;;;3.78;2.65;;;;;;;12.13;100.00;95469.50;1038999;28;20274;-74
2023/06/13 01:50:15;;;;;;;3.22;2.20;;;;;;;12.11;100.00;95468.22;1035078;28;20274;-74
2023/06/13 01:51:06;;;;;;;10.10;3.08;;;;;;;12.07;100.00;95462.72;1034266;28;20630;-74
2023/06/13 01:51:46;;;;;;;3.53;2.28;;;;;;;12.05;100.00;95467.50;1042984;28;20592;-74
2023/06/13 01:52:35;;;;;;;3.30;2.50;;;;;;;12.03;100.00;95465.13;1046470;28;20286;-74
2023/06/13 01:53:24;;;;;;;6.03;2.40;;;;;;;12.00;100.00;95465.72;1050505;28;20055;-74
2023/06/13 01:53:56;;;;;;;5.55;2.53;;;;;;;11.96;100.00;95458.63;1046487;28;20527;-73
2023/06/13 01:54:26;;;;;;;5.10;2.33;;;;;;;11.97;100.00;95460.19;1046578;28;20271;-73
2023/06/13 01:55:00;;;;;;;11.25;2.95;;;;;;;11.98;100.00;95459.94;1038251;28;20789;-74
2023/06/13 01:55:38;;;;;;;3.92;2.58;;;;;;;11.94;100.00;95461.56;1040021;28;20035;-74
2023/06/13 01:56:12;;;;;;;4.50;2.20;;;;;;;11.93;100.00;95465.22;1042333;28;20274;-74
2023/06/13 01:56:42;;;;;;;3.10;2.53;;;;;;;11.90;100.00;95460.50;1038237;28;20288;-74
2023/06/13 01:57:15;;;;;;;4.57;2.70;;;;;;;11.92;100.00;95463.66;1034078;28;20792;-74
2023/06/13 01:57:51;;;;;;;4.75;2.40;;;;;;;11.90;100.00;95454.47;1034920;28;20077;-74
2023/06/13 01:58:22;;;;;;;2.67;2.25;;;;;;;11.92;100.00;95462.88;1033123;28;20252;-74
2023/06/13 01:58:59;;;;;;;3.30;2.50;;;;;;;11.90;100.00;95463.16;1031671;28;20305;-74
2023/06/13 01:59:30;;;;;;;6.03;3.67;;;;;;;11.88;100.00;95462.66;1034012;28;20279;-74
2023/06/13 02:00:00;;;;;;;3.88;2.35;;;;;;;11.87;100.00;95463.72;1034269;28;20843;-74
2023/06/13 02:00:31;;;;;;;7.50;2.42;;;;;;;11.87;100.00;95466.34;1043273;28;20072;-74
2023/06/13 02:01:04;;;;;;;2.72;2.53;;;;;;;11.86;100.00;95463.97;1037808;28;20040;-73
2023/06/13 02:01:36;;;;;;;5.45;2.55;;;;;;;11.87;100.00;95463.72;1042201;28;20035;-74
2023/06/13 02:02:06;;;;;;;3.10;2.47;;;;;;;11.85;100.00;95465.84;1034170;28;20537;-74
2023/06/13 02:02:37;;;;;;;3.03;2.22;;;;;;;11.80;100.00;95456.13;1038387;28;20294;-74
2023/06/13 02:03:08;;;;;;;4.40;2.45;;;;;;;11.84;100.00;95461.66;1038850;28;20025;-74
2023/06/13 02:03:38;;;;;;;4.55;2.33;;;;;;;11.84;100.00;95461.66;1046391;28;20799;-74
2023/06/13 02:04:09;;;;;;;3.58;2.38;;;;;;;11.82;100.00;95458.47;1037972;28;20017;-73
2023/06/13 02:04:40;;;;;;;3.92;2.38;;;;;;;11.79;100.00;95461.66;1038387;28;20542;-74
2023/06/13 02:05:11;;;;;;;6.07;2.47;;;;;;;11.81;100.00;95456.91;1034225;28;20577;-74
2023/06/13 02:05:42;;;;;;;4.85;2.30;;;;;;;11.78;100.00;95452.19;1039926;28;20809;-73
2023/06/13 02:06:12;;;;;;;3.40;2.35;;;;;;;11.77;100.00;95459.31;1042392;28;20270;-72
2023/06/13 02:06:43;;;;;;;5.50;2.85;;;;;;;11.77;100.00;95458.53;1034304;28;20467;-74
2023/06/13 02:07:13;;;;;;;2.80;2.42;;;;;;;11.76;100.00;95454.31;1037859;28;20029;-72
2023/06/13 02:07:44;;;;;;;2.65;2.33;;;;;;;11.73;100.00;95453.00;1030036;28;20837;-73
2023/06/13 02:08:16;;;;;;;4.88;2.78;;;;;;;11.73;100.00;95460.91;1038252;28;20017;-73
2023/06/13 02:08:46;;;;;;;7.18;2.40;;;;;;;11.68;100.00;95452.28;1038458;28;20071;-74
2023/06/13 02:09:16;;;;;;;7.30;2.42;;;;;;;11.65;100.00;95450.22;1038300;28;20260;-73
2023/06/13 02:09:47;;;;;;;6.70;2.58;;;;;;;11.72;100.00;95463.81;1029961;28;20027;-74
2023/06/13 02:10:17;;;;;;;3.35;2.40;;;;;;;11.66;100.00;95441.25;1030046;28;20504;-74
2023/06/13 02:10:48;;;;;;;2.83;2.40;;;;;;;11.68;100.00;95453.06;1038068;28;20368;-74
2023/06/13 02:11:18;;;;;;;5.00;2.83;;;;;;;11.68;100.00;95454.91;1037767;28;20021;-73
2023/06/13 02:11:49;;;;;;;2.88;2.30;;;;;;;11.62;100.00;95442.88;1038372;28;20073;-74
2023/06/13 02:12:19;;;;;;;3.17;2.67;;;;;;;11.65;100.00;95453.63;1042310;28;20017;-71
2023/06/13 02:12:50;;;;;;;3.65;2.60;;;;;;;11.60;100.00;95451.03;1038215;28;20071;-74
2023/06/13 02:13:21;;;;;;;2.55;2.20;;;;;;;11.57;100.00;95436.63;1034140;28;20473;-77
2023/06/13 02:13:52;;;;;;;7.68;2.53;;;;;;;11.62;100.00;95450.75;1030539;28;20026;-74
2023/06/13 02:14:23;;;;;;;6.90;2.60;;;;;;;11.64;100.00;95453.91;1041170;28;20270;-73
2023/06/13 02:14:53;;;;;;;5.63;2.88;;;;;;;11.57;100.00;95441.88;1042729;28;20074;-74
2023/06/13 02:15:24;;;;;;;6.07;2.63;;;;;;;11.62;100.00;95445.50;1050730;28;20056;-74
2023/06/13 02:15:54;;;;;;;3.40;2.15;;;;;;;11.60;100.00;95445.00;1044443;28;20032;-73
2023/06/13 02:16:29;;;;;;;6.07;2.42;;;;;;;11.63;100.00;95441.81;1042273;28;20051;-73
2023/06/13 02:17:00;;;;;;;6.28;2.97;;;;;;;11.63;100.00;95444.44;1037519;28;20072;-74
2023/06/13 02:17:31;;;;;;;4.80;2.80;;;;;;;11.62;100.00;95448.13;1030949;28;20327;-74
2023/06/13 02:18:02;;;;;;;5.13;2.63;;;;;;;11.61;100.00;95447.34;1036159;28;20467;-73
2023/06/13 02:18:33;;;;;;;4.22;2.38;;;;;;;11.52;100.00;95444.53;1043109;28;20628;-74
2023/06/13 02:19:03;;;;;;;3.20;2.47;;;;;;;11.57;100.00;95446.34;1045513;28;20390;-74
2023/06/13 02:19:34;;;;;;;8.52;2.95;;;;;;;11.57;100.00;95446.34;1042521;28;20025;-74
2023/06/13 02:20:06;;;;;;;6.03;2.53;;;;;;;11.57;100.00;95447.13;1040878;28;20748;-73
2023/06/13 02:20:37;;;;;;;5.63;2.70;;;;;;;11.57;100.00;95441.88;1038244;28;20291;-73
2023/06/13 02:21:07;;;;;;;4.70;2.10;;;;;;;11.57;100.00;95449.75;1037179;28;20634;-74
2023/06/13 02:21:38;;;;;;;4.55;2.50;;;;;;;11.57;100.00;95452.38;1034498;28;20406;-74
2023/06/13 02:22:08;;;;;;;4.75;2.20;;;;;;;11.54;100.00;95442.41;1038952;28;20029;-74
2023/06/13 02:22:39;;;;;;;3.53;2.65;;;;;;;11.57;100.00;95451.59;1037986;28;20025;-73
2023/06/13 02:23:09;;;;;;;2.78;2.40;;;;;;;11.55;100.00;95443.97;1040152;28;20033;-73
2023/06/13 02:23:39;;;;;;;3.35;2.40;;;;;;;11.54;100.00;95447.66;1035002;28;20424;-74
2023/06/13 02:24:10;;;;;;;3.20;2.60;;;;;;;11.56;100.00;95448.16;1038314;28;20127;-74
2023/06/13 02:24:40;;;;;;;4.32;2.60;;;;;;;11.54;100.00;95439.78;1038735;28;20033;-76
2023/06/13 02:25:11;;;;;;;3.60;2.72;;;;;;;11.53;100.00;95440.81;1038787;28;20014;-74
2023/06/13 02:25:42;;;;;;;3.03;2.40;;;;;;;11.55;100.00;95443.19;1042528;28;20033;-73
2023/06/13 02:26:13;;;;;;;4.90;2.55;;;;;;;11.52;100.00;95444.53;1042939;28;20478;-73
2023/06/13 02:26:44;;;;;;;2.65;2.10;;;;;;;11.56;100.00;95442.91;1042779;28;20521;-74
2023/06/13 02:27:14;;;;;;;3.83;2.63;;;;;;;11.56;100.00;95440.28;1043451;28;20272;-73
2023/06/13 02:27:45;;;;;;;5.13;2.80;;;;;;;11.53;100.00;95440.81;1047332;28;20471;-73
2023/06/13 02:28:15;;;;;;;5.25;2.85;;;;;;;11.52;100.00;95443.75;1047182;28;20032;-74
2023/06/13 02:28:47;;;;;;;4.22;2.47;;;;;;;11.46;100.00;95434.31;1043202;28;20555;-74
2023/06/13 02:29:18;;;;;;;6.20;2.80;;;;;;;11.50;100.00;95443.22;1047340;28;20774;-73
2023/06/13 02:29:49;;;;;;;4.07;3.10;;;;;;;11.48;100.00;95437.47;1042568;28;20271;-74
2023/06/13 02:30:19;;;;;;;4.05;2.47;;;;;;;11.47;100.00;95436.69;1039090;28;20022;-74
2023/06/13 02:30:49;;;;;;;4.00;2.72;;;;;;;11.45;100.00;95441.44;1039641;28;20038;-72
2023/06/13 02:31:20;;;;;;;3.90;2.60;;;;;;;11.44;100.00;95441.72;1046633;28;20036;-72
2023/06/13 02:31:50;;;;;;;4.97;2.33;;;;;;;11.38;100.00;95434.94;1042965;28;20025;-73